sensor_id;sensor_type;location;lat;lon;timestamp;P1;durP1;ratioP1;P2;durP2;ratioP2
70008;SDS011;59542;37.950;-122.338;2022-12-18T00:01:21;8.30;;;6.40;;
70008;SDS011;59542;37.950;-122.338;2022-12-18T00:03:49;7.80;;;6.57;;
70008;SDS011;59542;37.950;-122.338;2022-12-18T00:06:16;11.10;;;6.95;;
70008;SDS011;59542;37.950;-122.338;2022-12-18T00:08:43;9.30;;;7.43;;
70008;SDS011;59542;37.950;-122.338;2022-12-18T00:11:11;10.70;;;7.60;;
70008;SDS011;59542;37.950;-122.338;2022-12-18T00:13:39;10.38;;;7.18;;
70008;SDS011;59542;37.950;-122.338;2022-12-18T00:16:07;9.18;;;6.95;;
70008;SDS011;59542;37.950;-122.338;2022-12-18T00:18:38;11.25;;;7.80;;
70008;SDS011;59542;37.950;-122.338;2022-12-18T00:21:05;8.15;;;7.13;;
70008;SDS011;59542;37.950;-122.338;2022-12-18T00:23:33;9.80;;;6.93;;
70008;SDS011;59542;37.950;-122.338;2022-12-18T00:26:01;9.45;;;7.53;;
70008;SDS011;59542;37.950;-122.338;2022-12-18T00:28:28;7.68;;;6.80;;
70008;SDS011;59542;37.950;-122.338;2022-12-18T00:33:27;9.20;;;7.25;;
70008;SDS011;59542;37.950;-122.338;2022-12-18T00:35:54;10.38;;;7.78;;
70008;SDS011;59542;37.950;-122.338;2022-12-18T00:38:20;10.02;;;7.00;;
70008;SDS011;59542;37.950;-122.338;2022-12-18T00:40:46;9.90;;;7.25;;
70008;SDS011;59542;37.950;-122.338;2022-12-18T00:43:13;8.38;;;6.90;;
70008;SDS011;59542;37.950;-122.338;2022-12-18T00:45:39;8.73;;;7.35;;
70008;SDS011;59542;37.950;-122.338;2022-12-18T00:48:06;9.45;;;6.70;;
70008;SDS011;59542;37.950;-122.338;2022-12-18T00:50:32;8.98;;;6.88;;
70008;SDS011;59542;37.950;-122.338;2022-12-18T00:52:58;10.88;;;7.38;;
70008;SDS011;59542;37.950;-122.338;2022-12-18T00:55:25;9.23;;;6.45;;
70008;SDS011;59542;37.950;-122.338;2022-12-18T00:57:51;9.88;;;6.65;;
70008;SDS011;59542;37.950;-122.338;2022-12-18T01:00:18;10.57;;;6.57;;
70008;SDS011;59542;37.950;-122.338;2022-12-18T01:02:44;8.43;;;6.07;;
70008;SDS011;59542;37.950;-122.338;2022-12-18T01:05:11;7.93;;;6.40;;
70008;SDS011;59542;37.950;-122.338;2022-12-18T01:07:38;8.85;;;6.35;;
70008;SDS011;59542;37.950;-122.338;2022-12-18T01:10:05;10.18;;;6.43;;
70008;SDS011;59542;37.950;-122.338;2022-12-18T01:12:33;11.52;;;8.45;;
70008;SDS011;59542;37.950;-122.338;2022-12-18T01:14:59;11.13;;;9.05;;
70008;SDS011;59542;37.950;-122.338;2022-12-18T01:17:26;8.93;;;7.57;;
70008;SDS011;59542;37.950;-122.338;2022-12-18T01:19:52;9.43;;;7.57;;
70008;SDS011;59542;37.950;-122.338;2022-12-18T01:22:18;8.80;;;7.90;;
70008;SDS011;59542;37.950;-122.338;2022-12-18T01:24:44;7.93;;;6.28;;
70008;SDS011;59542;37.950;-122.338;2022-12-18T01:27:11;7.85;;;6.78;;
70008;SDS011;59542;37.950;-122.338;2022-12-18T01:29:37;6.82;;;5.93;;
70008;SDS011;59542;37.950;-122.338;2022-12-18T01:32:03;7.32;;;5.93;;
70008;SDS011;59542;37.950;-122.338;2022-12-18T01:34:29;7.88;;;6.63;;
70008;SDS011;59542;37.950;-122.338;2022-12-18T01:36:56;7.55;;;6.75;;
70008;SDS011;59542;37.950;-122.338;2022-12-18T01:39:22;9.68;;;7.90;;
70008;SDS011;59542;37.950;-122.338;2022-12-18T01:41:48;8.38;;;6.82;;
70008;SDS011;59542;37.950;-122.338;2022-12-18T01:47:31;7.55;;;6.72;;
70008;SDS011;59542;37.950;-122.338;2022-12-18T01:52:44;6.88;;;5.82;;
70008;SDS011;59542;37.950;-122.338;2022-12-18T01:55:14;8.63;;;5.38;;
70008;SDS011;59542;37.950;-122.338;2022-12-18T01:57:44;5.45;;;4.60;;
70008;SDS011;59542;37.950;-122.338;2022-12-18T02:00:13;7.30;;;4.85;;
70008;SDS011;59542;37.950;-122.338;2022-12-18T02:02:41;6.57;;;4.28;;
70008;SDS011;59542;37.950;-122.338;2022-12-18T02:05:10;7.78;;;4.65;;
70008;SDS011;59542;37.950;-122.338;2022-12-18T02:10:29;9.50;;;4.60;;
70008;SDS011;59542;37.950;-122.338;2022-12-18T02:13:09;4.93;;;4.32;;
70008;SDS011;59542;37.950;-122.338;2022-12-18T02:15:56;5.28;;;4.53;;
70008;SDS011;59542;37.950;-122.338;2022-12-18T02:21:09;7.05;;;5.25;;
70008;SDS011;59542;37.950;-122.338;2022-12-18T02:29:20;5.25;;;4.25;;
70008;SDS011;59542;37.950;-122.338;2022-12-18T02:31:58;6.32;;;4.35;;
70008;SDS011;59542;37.950;-122.338;2022-12-18T02:34:44;5.80;;;4.55;;
70008;SDS011;59542;37.950;-122.338;2022-12-18T02:37:14;6.85;;;4.80;;
70008;SDS011;59542;37.950;-122.338;2022-12-18T02:39:44;6.63;;;5.10;;
70008;SDS011;59542;37.950;-122.338;2022-12-18T02:42:14;7.90;;;5.28;;
70008;SDS011;59542;37.950;-122.338;2022-12-18T02:44:43;6.82;;;4.95;;
70008;SDS011;59542;37.950;-122.338;2022-12-18T02:47:11;6.68;;;5.32;;
70008;SDS011;59542;37.950;-122.338;2022-12-18T02:49:44;6.68;;;4.60;;
70008;SDS011;59542;37.950;-122.338;2022-12-18T02:52:35;6.28;;;5.28;;
70008;SDS011;59542;37.950;-122.338;2022-12-18T02:58:14;8.03;;;5.80;;
70008;SDS011;59542;37.950;-122.338;2022-12-18T03:00:51;6.57;;;5.75;;
70008;SDS011;59542;37.950;-122.338;2022-12-18T03:03:40;8.73;;;6.40;;
70008;SDS011;59542;37.950;-122.338;2022-12-18T03:06:24;7.90;;;6.13;;
70008;SDS011;59542;37.950;-122.338;2022-12-18T03:08:59;9.07;;;7.32;;
70008;SDS011;59542;37.950;-122.338;2022-12-18T03:11:42;8.93;;;7.03;;
70008;SDS011;59542;37.950;-122.338;2022-12-18T03:14:31;6.90;;;6.22;;
70008;SDS011;59542;37.950;-122.338;2022-12-18T03:17:03;8.40;;;6.68;;
70008;SDS011;59542;37.950;-122.338;2022-12-18T03:19:32;8.02;;;6.05;;
70008;SDS011;59542;37.950;-122.338;2022-12-18T03:22:01;7.90;;;6.43;;
70008;SDS011;59542;37.950;-122.338;2022-12-18T03:24:29;7.55;;;6.78;;
70008;SDS011;59542;37.950;-122.338;2022-12-18T03:27:00;10.50;;;6.88;;
70008;SDS011;59542;37.950;-122.338;2022-12-18T03:29:38;10.48;;;7.85;;
70008;SDS011;59542;37.950;-122.338;2022-12-18T03:32:23;8.93;;;6.85;;
70008;SDS011;59542;37.950;-122.338;2022-12-18T03:34:55;9.20;;;6.80;;
70008;SDS011;59542;37.950;-122.338;2022-12-18T03:37:25;10.50;;;7.20;;
70008;SDS011;59542;37.950;-122.338;2022-12-18T03:39:51;11.93;;;7.75;;
70008;SDS011;59542;37.950;-122.338;2022-12-18T03:42:23;12.02;;;8.20;;
70008;SDS011;59542;37.950;-122.338;2022-12-18T03:45:19;11.85;;;8.77;;
70008;SDS011;59542;37.950;-122.338;2022-12-18T03:48:04;14.90;;;9.20;;
70008;SDS011;59542;37.950;-122.338;2022-12-18T03:56:14;9.73;;;7.97;;
70008;SDS011;59542;37.950;-122.338;2022-12-18T03:58:42;10.60;;;7.90;;
70008;SDS011;59542;37.950;-122.338;2022-12-18T04:01:10;9.13;;;7.90;;
70008;SDS011;59542;37.950;-122.338;2022-12-18T04:03:40;10.70;;;7.10;;
70008;SDS011;59542;37.950;-122.338;2022-12-18T04:06:08;13.20;;;7.07;;
70008;SDS011;59542;37.950;-122.338;2022-12-18T04:08:36;9.63;;;7.53;;
70008;SDS011;59542;37.950;-122.338;2022-12-18T04:11:03;13.10;;;7.70;;
70008;SDS011;59542;37.950;-122.338;2022-12-18T04:13:34;10.70;;;8.13;;
70008;SDS011;59542;37.950;-122.338;2022-12-18T04:16:02;11.48;;;7.78;;
70008;SDS011;59542;37.950;-122.338;2022-12-18T04:18:29;12.25;;;8.02;;
70008;SDS011;59542;37.950;-122.338;2022-12-18T04:20:55;10.40;;;7.47;;
70008;SDS011;59542;37.950;-122.338;2022-12-18T04:23:21;10.00;;;7.38;;
70008;SDS011;59542;37.950;-122.338;2022-12-18T04:25:48;10.10;;;7.55;;
70008;SDS011;59542;37.950;-122.338;2022-12-18T04:28:14;10.05;;;8.20;;
70008;SDS011;59542;37.950;-122.338;2022-12-18T04:30:40;14.05;;;8.50;;
70008;SDS011;59542;37.950;-122.338;2022-12-18T04:33:10;11.32;;;7.72;;
70008;SDS011;59542;37.950;-122.338;2022-12-18T04:35:36;11.23;;;8.07;;
70008;SDS011;59542;37.950;-122.338;2022-12-18T04:38:03;11.73;;;8.65;;
70008;SDS011;59542;37.950;-122.338;2022-12-18T04:40:30;11.40;;;7.90;;
70008;SDS011;59542;37.950;-122.338;2022-12-18T04:43:00;9.32;;;7.80;;
70008;SDS011;59542;37.950;-122.338;2022-12-18T04:45:26;13.85;;;9.48;;
70008;SDS011;59542;37.950;-122.338;2022-12-18T04:47:52;12.35;;;8.82;;
70008;SDS011;59542;37.950;-122.338;2022-12-18T04:50:18;13.65;;;8.73;;
70008;SDS011;59542;37.950;-122.338;2022-12-18T04:52:45;10.98;;;8.63;;
70008;SDS011;59542;37.950;-122.338;2022-12-18T04:55:11;12.75;;;9.15;;
70008;SDS011;59542;37.950;-122.338;2022-12-18T04:57:37;11.90;;;8.63;;
70008;SDS011;59542;37.950;-122.338;2022-12-18T05:00:03;12.65;;;9.55;;
70008;SDS011;59542;37.950;-122.338;2022-12-18T05:02:31;11.27;;;8.05;;
70008;SDS011;59542;37.950;-122.338;2022-12-18T05:04:57;11.07;;;8.63;;
70008;SDS011;59542;37.950;-122.338;2022-12-18T05:07:23;11.70;;;8.70;;
70008;SDS011;59542;37.950;-122.338;2022-12-18T05:09:50;12.57;;;9.55;;
70008;SDS011;59542;37.950;-122.338;2022-12-18T05:12:16;10.75;;;8.68;;
70008;SDS011;59542;37.950;-122.338;2022-12-18T05:14:42;12.07;;;8.38;;
70008;SDS011;59542;37.950;-122.338;2022-12-18T05:17:08;10.18;;;8.20;;
70008;SDS011;59542;37.950;-122.338;2022-12-18T05:19:35;11.82;;;9.18;;
70008;SDS011;59542;37.950;-122.338;2022-12-18T05:22:03;11.70;;;8.98;;
70008;SDS011;59542;37.950;-122.338;2022-12-18T05:24:30;12.30;;;9.13;;
70008;SDS011;59542;37.950;-122.338;2022-12-18T05:26:56;13.02;;;8.98;;
70008;SDS011;59542;37.950;-122.338;2022-12-18T05:29:22;12.32;;;8.60;;
70008;SDS011;59542;37.950;-122.338;2022-12-18T05:31:49;10.30;;;8.40;;
70008;SDS011;59542;37.950;-122.338;2022-12-18T05:34:15;12.35;;;8.98;;
70008;SDS011;59542;37.950;-122.338;2022-12-18T05:36:42;11.95;;;9.30;;
70008;SDS011;59542;37.950;-122.338;2022-12-18T05:39:08;11.55;;;8.18;;
70008;SDS011;59542;37.950;-122.338;2022-12-18T05:41:34;12.82;;;9.52;;
70008;SDS011;59542;37.950;-122.338;2022-12-18T05:44:01;12.32;;;8.93;;
70008;SDS011;59542;37.950;-122.338;2022-12-18T05:46:27;10.98;;;8.85;;
70008;SDS011;59542;37.950;-122.338;2022-12-18T05:48:54;11.73;;;9.00;;
70008;SDS011;59542;37.950;-122.338;2022-12-18T05:51:24;12.55;;;9.32;;
70008;SDS011;59542;37.950;-122.338;2022-12-18T05:53:50;14.00;;;9.68;;
70008;SDS011;59542;37.950;-122.338;2022-12-18T05:56:18;14.70;;;10.15;;
70008;SDS011;59542;37.950;-122.338;2022-12-18T05:58:46;14.27;;;9.13;;
70008;SDS011;59542;37.950;-122.338;2022-12-18T06:01:15;13.32;;;9.07;;
70008;SDS011;59542;37.950;-122.338;2022-12-18T06:03:43;12.63;;;9.48;;
70008;SDS011;59542;37.950;-122.338;2022-12-18T06:08:45;14.88;;;9.85;;
70008;SDS011;59542;37.950;-122.338;2022-12-18T06:11:12;14.80;;;10.10;;
70008;SDS011;59542;37.950;-122.338;2022-12-18T06:13:41;12.70;;;9.77;;
70008;SDS011;59542;37.950;-122.338;2022-12-18T06:16:07;11.95;;;9.07;;
70008;SDS011;59542;37.950;-122.338;2022-12-18T06:18:33;13.43;;;9.27;;
70008;SDS011;59542;37.950;-122.338;2022-12-18T06:21:00;11.13;;;9.07;;
70008;SDS011;59542;37.950;-122.338;2022-12-18T06:23:27;12.93;;;9.20;;
70008;SDS011;59542;37.950;-122.338;2022-12-18T06:25:53;11.70;;;9.18;;
70008;SDS011;59542;37.950;-122.338;2022-12-18T06:28:19;12.25;;;9.30;;
70008;SDS011;59542;37.950;-122.338;2022-12-18T06:30:46;15.02;;;9.55;;
70008;SDS011;59542;37.950;-122.338;2022-12-18T06:33:14;13.13;;;9.07;;
70008;SDS011;59542;37.950;-122.338;2022-12-18T06:35:41;12.10;;;9.15;;
70008;SDS011;59542;37.950;-122.338;2022-12-18T06:38:07;13.80;;;9.43;;
70008;SDS011;59542;37.950;-122.338;2022-12-18T06:40:34;13.38;;;9.98;;
70008;SDS011;59542;37.950;-122.338;2022-12-18T06:43:02;16.88;;;9.68;;
70008;SDS011;59542;37.950;-122.338;2022-12-18T06:45:28;12.50;;;9.85;;
70008;SDS011;59542;37.950;-122.338;2022-12-18T06:47:54;11.93;;;10.00;;
70008;SDS011;59542;37.950;-122.338;2022-12-18T06:50:20;12.90;;;9.05;;
70008;SDS011;59542;37.950;-122.338;2022-12-18T06:52:46;11.88;;;9.30;;
70008;SDS011;59542;37.950;-122.338;2022-12-18T06:55:13;13.20;;;9.82;;
70008;SDS011;59542;37.950;-122.338;2022-12-18T06:57:39;12.05;;;9.45;;
70008;SDS011;59542;37.950;-122.338;2022-12-18T07:00:06;12.85;;;9.45;;
70008;SDS011;59542;37.950;-122.338;2022-12-18T07:02:33;13.13;;;10.05;;
70008;SDS011;59542;37.950;-122.338;2022-12-18T07:05:00;14.65;;;10.20;;
70008;SDS011;59542;37.950;-122.338;2022-12-18T07:07:26;12.75;;;10.40;;
70008;SDS011;59542;37.950;-122.338;2022-12-18T07:09:52;11.43;;;8.75;;
70008;SDS011;59542;37.950;-122.338;2022-12-18T07:12:18;12.20;;;9.23;;
70008;SDS011;59542;37.950;-122.338;2022-12-18T07:14:44;10.50;;;8.48;;
70008;SDS011;59542;37.950;-122.338;2022-12-18T07:17:11;12.15;;;9.43;;
70008;SDS011;59542;37.950;-122.338;2022-12-18T07:19:37;11.25;;;9.13;;
70008;SDS011;59542;37.950;-122.338;2022-12-18T07:22:03;9.70;;;8.10;;
70008;SDS011;59542;37.950;-122.338;2022-12-18T07:24:29;13.98;;;8.77;;
70008;SDS011;59542;37.950;-122.338;2022-12-18T07:26:55;11.77;;;8.93;;
70008;SDS011;59542;37.950;-122.338;2022-12-18T07:29:22;12.68;;;8.93;;
70008;SDS011;59542;37.950;-122.338;2022-12-18T07:31:48;10.68;;;8.35;;
70008;SDS011;59542;37.950;-122.338;2022-12-18T07:34:14;13.93;;;9.52;;
70008;SDS011;59542;37.950;-122.338;2022-12-18T07:36:41;11.30;;;9.35;;
70008;SDS011;59542;37.950;-122.338;2022-12-18T07:39:07;12.75;;;9.15;;
70008;SDS011;59542;37.950;-122.338;2022-12-18T07:41:33;11.55;;;9.00;;
70008;SDS011;59542;37.950;-122.338;2022-12-18T07:44:00;14.02;;;9.70;;
70008;SDS011;59542;37.950;-122.338;2022-12-18T07:46:26;11.35;;;9.60;;
70008;SDS011;59542;37.950;-122.338;2022-12-18T07:48:53;10.95;;;8.50;;
70008;SDS011;59542;37.950;-122.338;2022-12-18T07:51:19;14.88;;;9.38;;
70008;SDS011;59542;37.950;-122.338;2022-12-18T07:53:45;12.20;;;9.05;;
70008;SDS011;59542;37.950;-122.338;2022-12-18T07:56:12;13.02;;;9.35;;
70008;SDS011;59542;37.950;-122.338;2022-12-18T07:58:38;11.77;;;8.60;;
70008;SDS011;59542;37.950;-122.338;2022-12-18T08:01:08;10.32;;;8.38;;
70008;SDS011;59542;37.950;-122.338;2022-12-18T08:03:36;11.43;;;8.90;;
70008;SDS011;59542;37.950;-122.338;2022-12-18T08:06:04;12.75;;;8.88;;
70008;SDS011;59542;37.950;-122.338;2022-12-18T08:08:32;10.65;;;8.02;;
70008;SDS011;59542;37.950;-122.338;2022-12-18T08:10:59;10.77;;;7.80;;
70008;SDS011;59542;37.950;-122.338;2022-12-18T08:13:26;13.45;;;8.23;;
70008;SDS011;59542;37.950;-122.338;2022-12-18T08:15:56;10.70;;;7.85;;
70008;SDS011;59542;37.950;-122.338;2022-12-18T08:18:27;10.60;;;8.05;;
70008;SDS011;59542;37.950;-122.338;2022-12-18T08:20:54;10.90;;;8.95;;
70008;SDS011;59542;37.950;-122.338;2022-12-18T08:23:21;10.73;;;8.50;;
70008;SDS011;59542;37.950;-122.338;2022-12-18T08:25:47;11.05;;;8.45;;
70008;SDS011;59542;37.950;-122.338;2022-12-18T08:28:15;9.38;;;8.30;;
70008;SDS011;59542;37.950;-122.338;2022-12-18T08:30:41;9.45;;;8.00;;
70008;SDS011;59542;37.950;-122.338;2022-12-18T08:33:07;12.55;;;8.82;;
70008;SDS011;59542;37.950;-122.338;2022-12-18T08:35:36;10.23;;;8.07;;
70008;SDS011;59542;37.950;-122.338;2022-12-18T08:38:03;9.73;;;7.50;;
70008;SDS011;59542;37.950;-122.338;2022-12-18T08:40:29;11.07;;;8.50;;
70008;SDS011;59542;37.950;-122.338;2022-12-18T08:42:56;11.27;;;8.52;;
70008;SDS011;59542;37.950;-122.338;2022-12-18T08:45:40;13.00;;;9.15;;
70008;SDS011;59542;37.950;-122.338;2022-12-18T08:48:06;11.80;;;9.20;;
70008;SDS011;59542;37.950;-122.338;2022-12-18T08:50:33;12.02;;;9.73;;
70008;SDS011;59542;37.950;-122.338;2022-12-18T08:52:59;13.02;;;9.43;;
70008;SDS011;59542;37.950;-122.338;2022-12-18T08:55:26;12.57;;;9.57;;
70008;SDS011;59542;37.950;-122.338;2022-12-18T08:57:52;12.75;;;8.98;;
70008;SDS011;59542;37.950;-122.338;2022-12-18T09:00:18;13.63;;;10.32;;
70008;SDS011;59542;37.950;-122.338;2022-12-18T09:02:45;12.73;;;9.38;;
70008;SDS011;59542;37.950;-122.338;2022-12-18T09:05:11;10.77;;;8.57;;
70008;SDS011;59542;37.950;-122.338;2022-12-18T09:07:37;15.40;;;9.80;;
70008;SDS011;59542;37.950;-122.338;2022-12-18T09:10:04;14.02;;;10.13;;
70008;SDS011;59542;37.950;-122.338;2022-12-18T09:12:31;13.23;;;10.68;;
70008;SDS011;59542;37.950;-122.338;2022-12-18T09:14:57;13.65;;;10.02;;
70008;SDS011;59542;37.950;-122.338;2022-12-18T09:17:23;12.57;;;9.02;;
70008;SDS011;59542;37.950;-122.338;2022-12-18T09:19:49;11.60;;;9.25;;
70008;SDS011;59542;37.950;-122.338;2022-12-18T09:22:16;13.85;;;10.30;;
70008;SDS011;59542;37.950;-122.338;2022-12-18T09:24:42;12.48;;;9.65;;
70008;SDS011;59542;37.950;-122.338;2022-12-18T09:27:09;13.48;;;9.00;;
70008;SDS011;59542;37.950;-122.338;2022-12-18T09:29:35;11.75;;;8.93;;
70008;SDS011;59542;37.950;-122.338;2022-12-18T09:32:01;11.43;;;8.85;;
70008;SDS011;59542;37.950;-122.338;2022-12-18T09:34:28;12.43;;;9.15;;
70008;SDS011;59542;37.950;-122.338;2022-12-18T09:36:54;10.75;;;8.32;;
70008;SDS011;59542;37.950;-122.338;2022-12-18T09:39:20;11.35;;;8.65;;
70008;SDS011;59542;37.950;-122.338;2022-12-18T09:41:56;12.93;;;9.13;;
70008;SDS011;59542;37.950;-122.338;2022-12-18T09:44:27;11.50;;;8.35;;
70008;SDS011;59542;37.950;-122.338;2022-12-18T09:49:23;11.82;;;8.77;;
70008;SDS011;59542;37.950;-122.338;2022-12-18T09:52:09;11.00;;;9.35;;
70008;SDS011;59542;37.950;-122.338;2022-12-18T09:54:44;11.40;;;8.85;;
70008;SDS011;59542;37.950;-122.338;2022-12-18T09:57:25;11.80;;;8.55;;
70008;SDS011;59542;37.950;-122.338;2022-12-18T09:59:54;10.88;;;8.13;;
70008;SDS011;59542;37.950;-122.338;2022-12-18T10:02:24;10.73;;;9.35;;
70008;SDS011;59542;37.950;-122.338;2022-12-18T10:07:44;14.23;;;9.43;;
70008;SDS011;59542;37.950;-122.338;2022-12-18T10:10:27;11.05;;;7.93;;
70008;SDS011;59542;37.950;-122.338;2022-12-18T10:13:07;11.57;;;8.98;;
70008;SDS011;59542;37.950;-122.338;2022-12-18T10:20:52;10.73;;;7.22;;
70008;SDS011;59542;37.950;-122.338;2022-12-18T10:26:23;10.70;;;8.75;;
70008;SDS011;59542;37.950;-122.338;2022-12-18T10:28:50;10.55;;;7.88;;
70008;SDS011;59542;37.950;-122.338;2022-12-18T10:31:22;10.45;;;8.02;;
70008;SDS011;59542;37.950;-122.338;2022-12-18T10:33:49;9.50;;;7.75;;
70008;SDS011;59542;37.950;-122.338;2022-12-18T10:36:16;15.80;;;9.27;;
70008;SDS011;59542;37.950;-122.338;2022-12-18T10:38:42;11.52;;;8.35;;
70008;SDS011;59542;37.950;-122.338;2022-12-18T10:41:23;13.10;;;8.57;;
70008;SDS011;59542;37.950;-122.338;2022-12-18T10:47:02;12.18;;;8.88;;
70008;SDS011;59542;37.950;-122.338;2022-12-18T10:49:32;11.38;;;9.15;;
70008;SDS011;59542;37.950;-122.338;2022-12-18T10:52:19;13.70;;;9.43;;
70008;SDS011;59542;37.950;-122.338;2022-12-18T10:54:50;14.18;;;10.55;;
70008;SDS011;59542;37.950;-122.338;2022-12-18T10:59:53;14.10;;;8.70;;
70008;SDS011;59542;37.950;-122.338;2022-12-18T11:02:28;13.00;;;10.18;;
70008;SDS011;59542;37.950;-122.338;2022-12-18T11:05:00;15.73;;;10.95;;
70008;SDS011;59542;37.950;-122.338;2022-12-18T11:07:41;14.70;;;10.88;;
70008;SDS011;59542;37.950;-122.338;2022-12-18T11:10:16;15.07;;;10.43;;
70008;SDS011;59542;37.950;-122.338;2022-12-18T11:12:44;13.73;;;10.20;;
70008;SDS011;59542;37.950;-122.338;2022-12-18T11:15:15;16.30;;;11.15;;
70008;SDS011;59542;37.950;-122.338;2022-12-18T11:17:45;14.98;;;10.68;;
70008;SDS011;59542;37.950;-122.338;2022-12-18T11:22:55;17.15;;;13.10;;
70008;SDS011;59542;37.950;-122.338;2022-12-18T11:25:26;18.33;;;11.93;;
70008;SDS011;59542;37.950;-122.338;2022-12-18T11:27:55;17.83;;;12.93;;
70008;SDS011;59542;37.950;-122.338;2022-12-18T11:38:18;17.35;;;12.85;;
70008;SDS011;59542;37.950;-122.338;2022-12-18T11:41:03;20.05;;;13.30;;
70008;SDS011;59542;37.950;-122.338;2022-12-18T11:43:41;18.70;;;13.52;;
70008;SDS011;59542;37.950;-122.338;2022-12-18T11:46:31;19.10;;;14.38;;
70008;SDS011;59542;37.950;-122.338;2022-12-18T11:49:12;21.00;;;15.48;;
70008;SDS011;59542;37.950;-122.338;2022-12-18T11:51:47;22.60;;;14.50;;
70008;SDS011;59542;37.950;-122.338;2022-12-18T11:54:19;17.85;;;13.05;;
70008;SDS011;59542;37.950;-122.338;2022-12-18T11:56:56;18.02;;;12.38;;
70008;SDS011;59542;37.950;-122.338;2022-12-18T12:02:47;17.45;;;12.70;;
70008;SDS011;59542;37.950;-122.338;2022-12-18T12:08:07;19.15;;;12.98;;
70008;SDS011;59542;37.950;-122.338;2022-12-18T12:10:48;16.13;;;12.57;;
70008;SDS011;59542;37.950;-122.338;2022-12-18T12:13:28;17.95;;;12.40;;
70008;SDS011;59542;37.950;-122.338;2022-12-18T12:21:41;16.65;;;12.27;;
70008;SDS011;59542;37.950;-122.338;2022-12-18T12:24:22;18.80;;;12.00;;
70008;SDS011;59542;37.950;-122.338;2022-12-18T12:29:55;15.98;;;11.85;;
70008;SDS011;59542;37.950;-122.338;2022-12-18T12:40:48;23.23;;;13.75;;
70008;SDS011;59542;37.950;-122.338;2022-12-18T12:46:03;19.25;;;13.10;;
70008;SDS011;59542;37.950;-122.338;2022-12-18T12:51:28;16.95;;;12.05;;
70008;SDS011;59542;37.950;-122.338;2022-12-18T12:53:58;21.67;;;14.10;;
70008;SDS011;59542;37.950;-122.338;2022-12-18T12:56:36;16.00;;;13.30;;
70008;SDS011;59542;37.950;-122.338;2022-12-18T12:59:19;16.38;;;12.70;;
70008;SDS011;59542;37.950;-122.338;2022-12-18T13:05:12;19.00;;;13.35;;
70008;SDS011;59542;37.950;-122.338;2022-12-18T13:12:55;18.15;;;12.68;;
70008;SDS011;59542;37.950;-122.338;2022-12-18T13:20:49;17.60;;;11.70;;
70008;SDS011;59542;37.950;-122.338;2022-12-18T13:38:40;16.10;;;11.93;;
70008;SDS011;59542;37.950;-122.338;2022-12-18T13:51:31;18.88;;;13.20;;
70008;SDS011;59542;37.950;-122.338;2022-12-18T13:54:00;19.27;;;13.52;;
70008;SDS011;59542;37.950;-122.338;2022-12-18T13:56:29;19.88;;;13.93;;
70008;SDS011;59542;37.950;-122.338;2022-12-18T13:59:17;21.10;;;14.38;;
70008;SDS011;59542;37.950;-122.338;2022-12-18T14:04:19;21.73;;;14.13;;
70008;SDS011;59542;37.950;-122.338;2022-12-18T14:06:49;22.55;;;15.10;;
70008;SDS011;59542;37.950;-122.338;2022-12-18T14:09:20;23.48;;;15.27;;
70008;SDS011;59542;37.950;-122.338;2022-12-18T14:11:52;25.52;;;16.42;;
70008;SDS011;59542;37.950;-122.338;2022-12-18T14:14:46;20.38;;;15.32;;
70008;SDS011;59542;37.950;-122.338;2022-12-18T14:17:16;26.17;;;17.02;;
70008;SDS011;59542;37.950;-122.338;2022-12-18T14:19:47;28.17;;;19.05;;
70008;SDS011;59542;37.950;-122.338;2022-12-18T14:22:18;29.20;;;18.73;;
70008;SDS011;59542;37.950;-122.338;2022-12-18T14:25:13;28.13;;;18.38;;
70008;SDS011;59542;37.950;-122.338;2022-12-18T14:28:25;27.45;;;18.50;;
70008;SDS011;59542;37.950;-122.338;2022-12-18T14:30:37;32.50;;;19.88;;
70008;SDS011;59542;37.950;-122.338;2022-12-18T14:35:43;30.50;;;19.75;;
70008;SDS011;59542;37.950;-122.338;2022-12-18T14:40:52;32.28;;;20.65;;
70008;SDS011;59542;37.950;-122.338;2022-12-18T14:43:20;32.83;;;20.50;;
70008;SDS011;59542;37.950;-122.338;2022-12-18T14:45:47;32.95;;;19.67;;
70008;SDS011;59542;37.950;-122.338;2022-12-18T14:48:33;27.73;;;19.10;;
70008;SDS011;59542;37.950;-122.338;2022-12-18T14:53:58;26.98;;;17.95;;
70008;SDS011;59542;37.950;-122.338;2022-12-18T14:56:37;29.70;;;19.38;;
70008;SDS011;59542;37.950;-122.338;2022-12-18T14:59:15;29.02;;;19.92;;
70008;SDS011;59542;37.950;-122.338;2022-12-18T15:02:29;32.45;;;20.67;;
70008;SDS011;59542;37.950;-122.338;2022-12-18T15:04:44;30.30;;;20.45;;
70008;SDS011;59542;37.950;-122.338;2022-12-18T15:09:37;30.85;;;20.80;;
70008;SDS011;59542;37.950;-122.338;2022-12-18T15:12:05;33.45;;;20.92;;
70008;SDS011;59542;37.950;-122.338;2022-12-18T15:14:44;32.80;;;21.23;;
70008;SDS011;59542;37.950;-122.338;2022-12-18T15:17:15;23.95;;;10.68;;
70008;SDS011;59542;37.950;-122.338;2022-12-18T15:19:47;27.08;;;13.52;;
70008;SDS011;59542;37.950;-122.338;2022-12-18T15:22:20;24.90;;;12.50;;
70008;SDS011;59542;37.950;-122.338;2022-12-18T15:24:58;40.03;;;24.90;;
70008;SDS011;59542;37.950;-122.338;2022-12-18T15:27:35;40.85;;;25.42;;
70008;SDS011;59542;37.950;-122.338;2022-12-18T15:30:15;40.83;;;25.85;;
70008;SDS011;59542;37.950;-122.338;2022-12-18T15:32:45;43.47;;;26.80;;
70008;SDS011;59542;37.950;-122.338;2022-12-18T15:35:16;46.60;;;28.80;;
70008;SDS011;59542;37.950;-122.338;2022-12-18T15:37:45;21.30;;;9.07;;
70008;SDS011;59542;37.950;-122.338;2022-12-18T15:40:15;24.00;;;11.77;;
70008;SDS011;59542;37.950;-122.338;2022-12-18T15:42:43;38.78;;;14.55;;
70008;SDS011;59542;37.950;-122.338;2022-12-18T15:45:29;33.10;;;13.88;;
70008;SDS011;59542;37.950;-122.338;2022-12-18T15:47:55;37.42;;;15.07;;
70008;SDS011;59542;37.950;-122.338;2022-12-18T15:50:21;31.63;;;13.25;;
70008;SDS011;59542;37.950;-122.338;2022-12-18T15:52:49;31.13;;;15.00;;
70008;SDS011;59542;37.950;-122.338;2022-12-18T15:55:18;52.63;;;31.02;;
70008;SDS011;59542;37.950;-122.338;2022-12-18T15:58:08;34.15;;;13.43;;
70008;SDS011;59542;37.950;-122.338;2022-12-18T16:00:36;51.80;;;31.65;;
70008;SDS011;59542;37.950;-122.338;2022-12-18T16:03:04;51.78;;;33.03;;
70008;SDS011;59542;37.950;-122.338;2022-12-18T16:05:31;54.65;;;33.10;;
70008;SDS011;59542;37.950;-122.338;2022-12-18T16:07:58;54.20;;;33.30;;
70008;SDS011;59542;37.950;-122.338;2022-12-18T16:10:25;56.45;;;34.47;;
70008;SDS011;59542;37.950;-122.338;2022-12-18T16:12:52;56.03;;;34.08;;
70008;SDS011;59542;37.950;-122.338;2022-12-18T16:15:19;60.85;;;36.30;;
70008;SDS011;59542;37.950;-122.338;2022-12-18T16:17:46;62.78;;;36.65;;
70008;SDS011;59542;37.950;-122.338;2022-12-18T16:20:17;62.00;;;38.03;;
70008;SDS011;59542;37.950;-122.338;2022-12-18T16:22:47;59.72;;;36.78;;
70008;SDS011;59542;37.950;-122.338;2022-12-18T16:25:21;57.78;;;36.75;;
70008;SDS011;59542;37.950;-122.338;2022-12-18T16:27:49;59.55;;;37.05;;
70008;SDS011;59542;37.950;-122.338;2022-12-18T16:30:20;57.13;;;36.75;;
70008;SDS011;59542;37.950;-122.338;2022-12-18T16:32:48;59.40;;;36.47;;
70008;SDS011;59542;37.950;-122.338;2022-12-18T16:35:15;65.85;;;37.00;;